sensor_id;sensor_type;location;lat;lon;timestamp;pressure;altitude;pressure_sealevel;temperature
62932;BMP280;49037;41.898;25.004;2024-02-26T00:01:17;95992.47;;;11.18
62932;BMP280;49037;41.898;25.004;2024-02-26T00:03:43;96006.88;;;11.22
62932;BMP280;49037;41.898;25.004;2024-02-26T00:06:10;96017.13;;;11.33
62932;BMP280;49037;41.898;25.004;2024-02-26T00:08:36;95997.50;;;11.06
62932;BMP280;49037;41.898;25.004;2024-02-26T00:11:02;95986.69;;;10.97
62932;BMP280;49037;41.898;25.004;2024-02-26T00:13:27;95985.47;;;10.91
62932;BMP280;49037;41.898;25.004;2024-02-26T00:15:55;95999.91;;;10.88
62932;BMP280;49037;41.898;25.004;2024-02-26T00:18:20;95985.69;;;10.78
62932;BMP280;49037;41.898;25.004;2024-02-26T00:20:49;95974.97;;;10.85
62932;BMP280;49037;41.898;25.004;2024-02-26T00:23:20;95986.72;;;10.82
62932;BMP280;49037;41.898;25.004;2024-02-26T00:25:49;95968.78;;;10.75
62932;BMP280;49037;41.898;25.004;2024-02-26T00:28:18;95992.97;;;10.85
62932;BMP280;49037;41.898;25.004;2024-02-26T00:30:48;95973.72;;;10.86
62932;BMP280;49037;41.898;25.004;2024-02-26T00:33:21;95978.69;;;10.90
62932;BMP280;49037;41.898;25.004;2024-02-26T00:35:52;95998.31;;;10.85
62932;BMP280;49037;41.898;25.004;2024-02-26T00:38:18;95984.06;;;10.75
62932;BMP280;49037;41.898;25.004;2024-02-26T00:40:44;95995.09;;;10.86
62932;BMP280;49037;41.898;25.004;2024-02-26T00:43:09;95980.53;;;10.72
62932;BMP280;49037;41.898;25.004;2024-02-26T00:45:35;95988.31;;;10.85
62932;BMP280;49037;41.898;25.004;2024-02-26T00:51:11;95986.94;;;10.77
62932;BMP280;49037;41.898;25.004;2024-02-26T00:53:36;95997.94;;;10.96
62932;BMP280;49037;41.898;25.004;2024-02-26T00:56:16;95997.75;;;10.86
62932;BMP280;49037;41.898;25.004;2024-02-26T00:58:46;95982.16;;;10.68
62932;BMP280;49037;41.898;25.004;2024-02-26T01:01:12;95994.44;;;10.71
62932;BMP280;49037;41.898;25.004;2024-02-26T01:03:47;95976.28;;;10.69
62932;BMP280;49037;41.898;25.004;2024-02-26T01:06:13;95997.22;;;10.88
62932;BMP280;49037;41.898;25.004;2024-02-26T01:08:41;95978.19;;;10.76
62932;BMP280;49037;41.898;25.004;2024-02-26T01:11:07;95970.31;;;10.93
62932;BMP280;49037;41.898;25.004;2024-02-26T01:13:33;95995.19;;;11.10
62932;BMP280;49037;41.898;25.004;2024-02-26T01:15:58;95980.41;;;11.09
62932;BMP280;49037;41.898;25.004;2024-02-26T01:18:30;95978.47;;;11.02
62932;BMP280;49037;41.898;25.004;2024-02-26T01:20:56;95984.41;;;10.86
62932;BMP280;49037;41.898;25.004;2024-02-26T01:23:21;95973.56;;;10.84
62932;BMP280;49037;41.898;25.004;2024-02-26T01:25:47;95966.94;;;10.93
62932;BMP280;49037;41.898;25.004;2024-02-26T01:28:14;95978.69;;;10.90
62932;BMP280;49037;41.898;25.004;2024-02-26T01:30:43;95966.09;;;10.83
62932;BMP280;49037;41.898;25.004;2024-02-26T01:33:11;95983.09;;;11.09
62932;BMP280;49037;41.898;25.004;2024-02-26T01:35:39;95970.91;;;10.84
62932;BMP280;49037;41.898;25.004;2024-02-26T01:38:04;95970.91;;;10.77
62932;BMP280;49037;41.898;25.004;2024-02-26T01:40:31;95983.34;;;10.89
62932;BMP280;49037;41.898;25.004;2024-02-26T01:42:56;95978.25;;;10.69
62932;BMP280;49037;41.898;25.004;2024-02-26T01:45:22;95960.78;;;10.68
62932;BMP280;49037;41.898;25.004;2024-02-26T01:47:53;95957.91;;;10.81
62932;BMP280;49037;41.898;25.004;2024-02-26T01:50:23;95961.28;;;10.81
62932;BMP280;49037;41.898;25.004;2024-02-26T01:52:50;95980.81;;;10.91
62932;BMP280;49037;41.898;25.004;2024-02-26T01:55:18;95947.00;;;10.86
62932;BMP280;49037;41.898;25.004;2024-02-26T01:57:45;95960.94;;;10.77
62932;BMP280;49037;41.898;25.004;2024-02-26T02:00:12;95954.22;;;10.69
62932;BMP280;49037;41.898;25.004;2024-02-26T02:02:39;95961.28;;;10.74
62932;BMP280;49037;41.898;25.004;2024-02-26T02:05:08;95946.00;;;10.74
62932;BMP280;49037;41.898;25.004;2024-02-26T02:07:35;95945.34;;;10.52
62932;BMP280;49037;41.898;25.004;2024-02-26T02:10:01;95945.00;;;10.55
62932;BMP280;49037;41.898;25.004;2024-02-26T02:12:27;95939.47;;;10.60
62932;BMP280;49037;41.898;25.004;2024-02-26T02:14:53;95943.72;;;10.63
62932;BMP280;49037;41.898;25.004;2024-02-26T02:17:21;95931.25;;;10.66
62932;BMP280;49037;41.898;25.004;2024-02-26T02:19:49;95937.88;;;10.57
62932;BMP280;49037;41.898;25.004;2024-02-26T02:22:15;95945.03;;;10.48
62932;BMP280;49037;41.898;25.004;2024-02-26T02:24:41;95942.19;;;10.38
62932;BMP280;49037;41.898;25.004;2024-02-26T02:27:06;95950.91;;;10.46
62932;BMP280;49037;41.898;25.004;2024-02-26T02:29:32;95953.75;;;10.33
62932;BMP280;49037;41.898;25.004;2024-02-26T02:31:57;95957.69;;;10.32
62932;BMP280;49037;41.898;25.004;2024-02-26T02:34:23;95930.84;;;10.23
62932;BMP280;49037;41.898;25.004;2024-02-26T02:36:52;95946.97;;;10.47
62932;BMP280;49037;41.898;25.004;2024-02-26T02:39:17;95945.22;;;10.42
62932;BMP280;49037;41.898;25.004;2024-02-26T02:41:43;95930.63;;;10.36
62932;BMP280;49037;41.898;25.004;2024-02-26T02:44:09;95937.56;;;10.46
62932;BMP280;49037;41.898;25.004;2024-02-26T02:46:35;95932.94;;;10.39
62932;BMP280;49037;41.898;25.004;2024-02-26T02:49:48;95932.59;;;10.28
62932;BMP280;49037;41.898;25.004;2024-02-26T02:52:39;95941.47;;;10.38
62932;BMP280;49037;41.898;25.004;2024-02-26T02:55:05;95938.81;;;10.30
62932;BMP280;49037;41.898;25.004;2024-02-26T02:59:59;95937.94;;;10.28
62932;BMP280;49037;41.898;25.004;2024-02-26T03:02:24;95933.69;;;10.25
62932;BMP280;49037;41.898;25.004;2024-02-26T03:04:50;95929.81;;;10.18
62932;BMP280;49037;41.898;25.004;2024-02-26T03:07:23;95936.16;;;10.23
62932;BMP280;49037;41.898;25.004;2024-02-26T03:09:53;95945.06;;;10.25
62932;BMP280;49037;41.898;25.004;2024-02-26T03:12:18;95934.78;;;10.14
62932;BMP280;49037;41.898;25.004;2024-02-26T03:15:13;95935.69;;;10.09
62932;BMP280;49037;41.898;25.004;2024-02-26T03:17:54;95930.16;;;10.15
62932;BMP280;49037;41.898;25.004;2024-02-26T03:20:20;95925.13;;;10.19
62932;BMP280;49037;41.898;25.004;2024-02-26T03:22:48;95936.50;;;10.27
62932;BMP280;49037;41.898;25.004;2024-02-26T03:25:16;95923.38;;;10.21
62932;BMP280;49037;41.898;25.004;2024-02-26T03:27:45;95921.22;;;10.20
62932;BMP280;49037;41.898;25.004;2024-02-26T03:30:11;95923.03;;;10.17
62932;BMP280;49037;41.898;25.004;2024-02-26T03:32:37;95936.91;;;10.16
62932;BMP280;49037;41.898;25.004;2024-02-26T03:35:05;95948.97;;;10.24
62932;BMP280;49037;41.898;25.004;2024-02-26T03:37:33;95945.41;;;10.29
62932;BMP280;49037;41.898;25.004;2024-02-26T03:39:59;95937.94;;;10.20
62932;BMP280;49037;41.898;25.004;2024-02-26T03:42:28;95940.63;;;10.20
62932;BMP280;49037;41.898;25.004;2024-02-26T03:44:56;95956.06;;;10.29
62932;BMP280;49037;41.898;25.004;2024-02-26T03:47:27;95939.91;;;10.12
62932;BMP280;49037;41.898;25.004;2024-02-26T03:49:56;95951.66;;;10.17
62932;BMP280;49037;41.898;25.004;2024-02-26T03:52:30;95954.66;;;10.28
62932;BMP280;49037;41.898;25.004;2024-02-26T03:54:56;95968.50;;;10.49
62932;BMP280;49037;41.898;25.004;2024-02-26T03:57:21;95967.59;;;10.54
62932;BMP280;49037;41.898;25.004;2024-02-26T03:59:55;95952.31;;;10.47
62932;BMP280;49037;41.898;25.004;2024-02-26T04:02:21;95951.41;;;10.45
62932;BMP280;49037;41.898;25.004;2024-02-26T04:04:50;95960.84;;;10.53
62932;BMP280;49037;41.898;25.004;2024-02-26T04:07:16;95945.53;;;10.53
62932;BMP280;49037;41.898;25.004;2024-02-26T04:09:42;95954.94;;;10.62
62932;BMP280;49037;41.898;25.004;2024-02-26T04:12:08;95947.81;;;10.64
62932;BMP280;49037;41.898;25.004;2024-02-26T04:14:35;95949.25;;;10.65
62932;BMP280;49037;41.898;25.004;2024-02-26T04:17:01;95943.75;;;10.56
62932;BMP280;49037;41.898;25.004;2024-02-26T04:19:32;95944.03;;;10.13
62932;BMP280;49037;41.898;25.004;2024-02-26T04:21:59;95944.16;;;10.23
62932;BMP280;49037;41.898;25.004;2024-02-26T04:24:28;95948.94;;;10.39
62932;BMP280;49037;41.898;25.004;2024-02-26T04:26:55;95950.38;;;10.48
62932;BMP280;49037;41.898;25.004;2024-02-26T04:29:23;95946.63;;;10.43
62932;BMP280;49037;41.898;25.004;2024-02-26T04:31:55;95967.41;;;10.59
62932;BMP280;49037;41.898;25.004;2024-02-26T04:34:20;95943.41;;;10.45
62932;BMP280;49037;41.898;25.004;2024-02-26T04:36:48;95949.97;;;10.51
62932;BMP280;49037;41.898;25.004;2024-02-26T04:39:14;95961.34;;;10.59
62932;BMP280;49037;41.898;25.004;2024-02-26T04:41:39;95955.84;;;10.57
62932;BMP280;49037;41.898;25.004;2024-02-26T04:44:05;95948.47;;;10.11
62932;BMP280;49037;41.898;25.004;2024-02-26T04:46:31;95951.50;;;10.15
62932;BMP280;49037;41.898;25.004;2024-02-26T04:48:57;95958.41;;;10.25
62932;BMP280;49037;41.898;25.004;2024-02-26T04:51:23;95953.25;;;10.20
62932;BMP280;49037;41.898;25.004;2024-02-26T04:53:49;95950.25;;;10.23
62932;BMP280;49037;41.898;25.004;2024-02-26T04:56:17;95954.31;;;10.24
62932;BMP280;49037;41.898;25.004;2024-02-26T04:58:44;95950.59;;;10.12
62932;BMP280;49037;41.898;25.004;2024-02-26T05:01:10;95974.28;;;10.01
62932;BMP280;49037;41.898;25.004;2024-02-26T05:03:44;95959.13;;;10.04
62932;BMP280;49037;41.898;25.004;2024-02-26T05:06:13;95955.94;;;10.12
62932;BMP280;49037;41.898;25.004;2024-02-26T05:08:38;95954.34;;;9.95
62932;BMP280;49037;41.898;25.004;2024-02-26T05:11:05;95963.44;;;9.84
62932;BMP280;49037;41.898;25.004;2024-02-26T05:13:31;95962.84;;;9.63
62932;BMP280;49037;41.898;25.004;2024-02-26T05:15:56;95957.16;;;9.52
62932;BMP280;49037;41.898;25.004;2024-02-26T05:18:22;95957.50;;;9.49
62932;BMP280;49037;41.898;25.004;2024-02-26T05:20:47;95961.94;;;9.46
62932;BMP280;49037;41.898;25.004;2024-02-26T05:23:17;95953.22;;;9.46
62932;BMP280;49037;41.898;25.004;2024-02-26T05:25:45;95956.09;;;9.55
62932;BMP280;49037;41.898;25.004;2024-02-26T05:28:13;95972.66;;;9.68
62932;BMP280;49037;41.898;25.004;2024-02-26T05:30:42;95976.00;;;9.61
62932;BMP280;49037;41.898;25.004;2024-02-26T05:33:08;95971.75;;;9.59
62932;BMP280;49037;41.898;25.004;2024-02-26T05:35:33;95959.47;;;9.56
62932;BMP280;49037;41.898;25.004;2024-02-26T05:37:59;95961.06;;;9.51
62932;BMP280;49037;41.898;25.004;2024-02-26T05:40:24;95962.31;;;9.65
62932;BMP280;49037;41.898;25.004;2024-02-26T05:42:50;95971.56;;;9.79
62932;BMP280;49037;41.898;25.004;2024-02-26T05:45:15;95975.31;;;9.83
62932;BMP280;49037;41.898;25.004;2024-02-26T05:47:41;95981.69;;;9.80
62932;BMP280;49037;41.898;25.004;2024-02-26T05:50:12;95985.47;;;9.85
62932;BMP280;49037;41.898;25.004;2024-02-26T05:52:38;95997.19;;;9.89
62932;BMP280;49037;41.898;25.004;2024-02-26T05:55:05;95997.38;;;9.99
62932;BMP280;49037;41.898;25.004;2024-02-26T05:57:34;95984.03;;;9.91
62932;BMP280;49037;41.898;25.004;2024-02-26T06:00:00;95989.91;;;9.97
62932;BMP280;49037;41.898;25.004;2024-02-26T06:02:29;96000.56;;;10.05
62932;BMP280;49037;41.898;25.004;2024-02-26T06:04:55;95998.28;;;10.08
62932;BMP280;49037;41.898;25.004;2024-02-26T06:07:21;95994.72;;;10.13
62932;BMP280;49037;41.898;25.004;2024-02-26T06:09:48;95986.72;;;10.06
62932;BMP280;49037;41.898;25.004;2024-02-26T06:12:13;95995.25;;;10.05
62932;BMP280;49037;41.898;25.004;2024-02-26T06:14:39;96000.53;;;10.19
62932;BMP280;49037;41.898;25.004;2024-02-26T06:17:08;95982.06;;;10.21
62932;BMP280;49037;41.898;25.004;2024-02-26T06:19:36;96000.56;;;10.42
62932;BMP280;49037;41.898;25.004;2024-02-26T06:22:02;96007.47;;;10.52
62932;BMP280;49037;41.898;25.004;2024-02-26T06:24:27;96000.34;;;10.47
62932;BMP280;49037;41.898;25.004;2024-02-26T06:26:53;96003.56;;;10.46
62932;BMP280;49037;41.898;25.004;2024-02-26T06:29:24;96010.13;;;10.52
62932;BMP280;49037;41.898;25.004;2024-02-26T06:31:50;96008.00;;;10.58
62932;BMP280;49037;41.898;25.004;2024-02-26T06:34:23;96006.53;;;10.72
62932;BMP280;49037;41.898;25.004;2024-02-26T06:36:57;96018.47;;;10.63
62932;BMP280;49037;41.898;25.004;2024-02-26T06:39:22;96015.09;;;10.63
62932;BMP280;49037;41.898;25.004;2024-02-26T06:41:57;96009.03;;;10.62
62932;BMP280;49037;41.898;25.004;2024-02-26T06:44:29;96017.75;;;10.70
62932;BMP280;49037;41.898;25.004;2024-02-26T06:47:02;96024.53;;;10.71
62932;BMP280;49037;41.898;25.004;2024-02-26T06:49:28;96028.75;;;10.82
62932;BMP280;49037;41.898;25.004;2024-02-26T06:51:57;96024.13;;;10.82
62932;BMP280;49037;41.898;25.004;2024-02-26T06:54:22;96024.66;;;10.96
62932;BMP280;49037;41.898;25.004;2024-02-26T06:56:48;96023.03;;;10.93
62932;BMP280;49037;41.898;25.004;2024-02-26T06:59:13;96037.41;;;11.04
62932;BMP280;49037;41.898;25.004;2024-02-26T07:01:42;96030.84;;;11.05
62932;BMP280;49037;41.898;25.004;2024-02-26T07:04:07;96045.94;;;11.10
62932;BMP280;49037;41.898;25.004;2024-02-26T07:10:02;96037.66;;;10.84
62932;BMP280;49037;41.898;25.004;2024-02-26T07:12:36;96032.50;;;10.86
62932;BMP280;49037;41.898;25.004;2024-02-26T07:15:04;96050.13;;;10.97
62932;BMP280;49037;41.898;25.004;2024-02-26T07:17:33;96042.06;;;11.04
62932;BMP280;49037;41.898;25.004;2024-02-26T07:20:02;96049.47;;;11.13
62932;BMP280;49037;41.898;25.004;2024-02-26T07:22:31;96071.72;;;11.30
62932;BMP280;49037;41.898;25.004;2024-02-26T07:24:59;96053.94;;;11.18
62932;BMP280;49037;41.898;25.004;2024-02-26T07:27:29;96039.88;;;11.17
62932;BMP280;49037;41.898;25.004;2024-02-26T07:30:02;96055.16;;;11.24
62932;BMP280;49037;41.898;25.004;2024-02-26T07:32:27;96068.03;;;11.18
62932;BMP280;49037;41.898;25.004;2024-02-26T07:34:56;96054.25;;;11.22
62932;BMP280;49037;41.898;25.004;2024-02-26T07:37:22;96050.59;;;11.10
62932;BMP280;49037;41.898;25.004;2024-02-26T07:39:50;96057.69;;;11.15
62932;BMP280;49037;41.898;25.004;2024-02-26T07:42:16;96062.56;;;11.33
62932;BMP280;49037;41.898;25.004;2024-02-26T07:44:41;96054.06;;;11.27
62932;BMP280;49037;41.898;25.004;2024-02-26T07:47:12;96042.81;;;11.36
62932;BMP280;49037;41.898;25.004;2024-02-26T07:49:45;96049.75;;;11.39
62932;BMP280;49037;41.898;25.004;2024-02-26T07:52:18;96061.47;;;11.51
62932;BMP280;49037;41.898;25.004;2024-02-26T07:54:43;96045.22;;;11.49
62932;BMP280;49037;41.898;25.004;2024-02-26T07:57:09;96064.00;;;11.34
62932;BMP280;49037;41.898;25.004;2024-02-26T07:59:42;96058.63;;;11.42
62932;BMP280;49037;41.898;25.004;2024-02-26T08:02:16;96050.38;;;11.54
62932;BMP280;49037;41.898;25.004;2024-02-26T08:04:42;96035.13;;;11.40
62932;BMP280;49037;41.898;25.004;2024-02-26T08:07:08;96044.72;;;11.43
62932;BMP280;49037;41.898;25.004;2024-02-26T08:09:41;96048.28;;;11.46
62932;BMP280;49037;41.898;25.004;2024-02-26T08:12:18;96034.56;;;11.42
62932;BMP280;49037;41.898;25.004;2024-02-26T08:14:44;96035.31;;;11.42
62932;BMP280;49037;41.898;25.004;2024-02-26T08:17:12;96033.63;;;11.54
62932;BMP280;49037;41.898;25.004;2024-02-26T08:19:40;96047.03;;;11.78
62932;BMP280;49037;41.898;25.004;2024-02-26T08:22:15;96033.09;;;11.80
62932;BMP280;49037;41.898;25.004;2024-02-26T08:24:44;96031.75;;;11.95
62932;BMP280;49037;41.898;25.004;2024-02-26T08:27:10;96045.78;;;12.03
62932;BMP280;49037;41.898;25.004;2024-02-26T08:29:45;96041.06;;;12.11
62932;BMP280;49037;41.898;25.004;2024-02-26T08:32:20;96033.75;;;12.12
62932;BMP280;49037;41.898;25.004;2024-02-26T08:34:52;96030.59;;;12.30
62932;BMP280;49037;41.898;25.004;2024-02-26T08:37:18;96029.31;;;12.31
62932;BMP280;49037;41.898;25.004;2024-02-26T08:39:45;96027.91;;;12.30
62932;BMP280;49037;41.898;25.004;2024-02-26T08:42:11;96018.47;;;12.46
62932;BMP280;49037;41.898;25.004;2024-02-26T08:44:39;96022.66;;;12.56
62932;BMP280;49037;41.898;25.004;2024-02-26T08:47:08;96031.47;;;12.66
62932;BMP280;49037;41.898;25.004;2024-02-26T08:49:33;96011.06;;;12.37
62932;BMP280;49037;41.898;25.004;2024-02-26T08:52:04;96016.25;;;12.35
62932;BMP280;49037;41.898;25.004;2024-02-26T08:54:29;96026.97;;;12.35
62932;BMP280;49037;41.898;25.004;2024-02-26T08:56:56;96015.94;;;12.48
62932;BMP280;49037;41.898;25.004;2024-02-26T08:59:24;96018.56;;;12.55
62932;BMP280;49037;41.898;25.004;2024-02-26T09:02:00;96024.28;;;12.52
62932;BMP280;49037;41.898;25.004;2024-02-26T09:04:30;96038.78;;;12.66
62932;BMP280;49037;41.898;25.004;2024-02-26T09:09:51;96025.88;;;12.72
62932;BMP280;49037;41.898;25.004;2024-02-26T09:12:19;96025.25;;;12.64
62932;BMP280;49037;41.898;25.004;2024-02-26T09:14:47;96031.06;;;12.86
62932;BMP280;49037;41.898;25.004;2024-02-26T09:17:19;96023.19;;;12.88
62932;BMP280;49037;41.898;25.004;2024-02-26T09:19:44;96039.59;;;12.92
62932;BMP280;49037;41.898;25.004;2024-02-26T09:22:26;96037.69;;;12.85
62932;BMP280;49037;41.898;25.004;2024-02-26T09:25:45;96030.13;;;12.75
62932;BMP280;49037;41.898;25.004;2024-02-26T09:28:19;96051.63;;;12.50
62932;BMP280;49037;41.898;25.004;2024-02-26T09:30:50;96043.69;;;12.60
62932;BMP280;49037;41.898;25.004;2024-02-26T09:33:19;96032.50;;;12.54
62932;BMP280;49037;41.898;25.004;2024-02-26T09:35:50;96032.03;;;12.65
62932;BMP280;49037;41.898;25.004;2024-02-26T09:38:20;96043.50;;;12.58
62932;BMP280;49037;41.898;25.004;2024-02-26T09:43:44;96047.94;;;12.63
62932;BMP280;49037;41.898;25.004;2024-02-26T09:46:13;96048.88;;;12.58
62932;BMP280;49037;41.898;25.004;2024-02-26T09:56:01;96036.53;;;12.21
62932;BMP280;49037;41.898;25.004;2024-02-26T09:58:30;96028.69;;;12.40
62932;BMP280;49037;41.898;25.004;2024-02-26T10:04:23;96029.81;;;12.87
62932;BMP280;49037;41.898;25.004;2024-02-26T10:06:57;96007.59;;;12.94
62932;BMP280;49037;41.898;25.004;2024-02-26T10:09:28;96020.31;;;13.20
62932;BMP280;49037;41.898;25.004;2024-02-26T10:12:18;96015.41;;;13.26
62932;BMP280;49037;41.898;25.004;2024-02-26T10:15:21;95998.63;;;13.35
62932;BMP280;49037;41.898;25.004;2024-02-26T10:18:52;95993.59;;;13.13
62932;BMP280;49037;41.898;25.004;2024-02-26T10:21:53;95986.34;;;13.06
62932;BMP280;49037;41.898;25.004;2024-02-26T10:24:22;95980.53;;;13.26
62932;BMP280;49037;41.898;25.004;2024-02-26T10:27:02;95993.09;;;13.59
62932;BMP280;49037;41.898;25.004;2024-02-26T10:29:36;95969.13;;;13.61
62932;BMP280;49037;41.898;25.004;2024-02-26T10:32:21;95988.94;;;13.84
62932;BMP280;49037;41.898;25.004;2024-02-26T10:35:14;95966.16;;;13.31
62932;BMP280;49037;41.898;25.004;2024-02-26T10:37:56;95970.19;;;13.49
62932;BMP280;49037;41.898;25.004;2024-02-26T10:40:32;95975.63;;;13.68
62932;BMP280;49037;41.898;25.004;2024-02-26T10:43:10;95961.66;;;13.69
62932;BMP280;49037;41.898;25.004;2024-02-26T10:45:36;95953.91;;;13.82
62932;BMP280;49037;41.898;25.004;2024-02-26T10:48:14;95964.25;;;13.95
62932;BMP280;49037;41.898;25.004;2024-02-26T10:50:44;95958.78;;;14.03
62932;BMP280;49037;41.898;25.004;2024-02-26T10:59:16;95958.31;;;13.97
62932;BMP280;49037;41.898;25.004;2024-02-26T11:01:56;95933.31;;;13.94
62932;BMP280;49037;41.898;25.004;2024-02-26T11:04:43;95940.25;;;14.07
62932;BMP280;49037;41.898;25.004;2024-02-26T11:07:43;95931.59;;;13.80
62932;BMP280;49037;41.898;25.004;2024-02-26T11:10:17;95937.84;;;14.01
62932;BMP280;49037;41.898;25.004;2024-02-26T11:12:53;95929.69;;;14.09
62932;BMP280;49037;41.898;25.004;2024-02-26T11:18:58;95911.16;;;14.03
62932;BMP280;49037;41.898;25.004;2024-02-26T11:31:57;95927.94;;;14.69
62932;BMP280;49037;41.898;25.004;2024-02-26T12:33:34;95888.84;;;14.87
62932;BMP280;49037;41.898;25.004;2024-02-26T12:36:11;95895.34;;;14.94
62932;BMP280;49037;41.898;25.004;2024-02-26T12:42:35;95891.78;;;15.00
62932;BMP280;49037;41.898;25.004;2024-02-26T12:45:53;95894.19;;;15.06
62932;BMP280;49037;41.898;25.004;2024-02-26T12:56:16;95889.69;;;14.80
62932;BMP280;49037;41.898;25.004;2024-02-26T13:06:31;95914.25;;;14.47
62932;BMP280;49037;41.898;25.004;2024-02-26T13:13:14;95907.31;;;14.44
62932;BMP280;49037;41.898;25.004;2024-02-26T13:30:15;95916.69;;;14.92
62932;BMP280;49037;41.898;25.004;2024-02-26T13:36:04;95922.28;;;15.14
62932;BMP280;49037;41.898;25.004;2024-02-26T13:38:32;95914.19;;;15.24
62932;BMP280;49037;41.898;25.004;2024-02-26T13:47:18;95921.25;;;15.29
62932;BMP280;49037;41.898;25.004;2024-02-26T13:53:06;95940.97;;;15.12
62932;BMP280;49037;41.898;25.004;2024-02-26T13:55:48;95941.97;;;15.17
62932;BMP280;49037;41.898;25.004;2024-02-26T14:01:28;95932.84;;;15.01
62932;BMP280;49037;41.898;25.004;2024-02-26T14:04:12;95948.13;;;14.98
62932;BMP280;49037;41.898;25.004;2024-02-26T14:06:48;95941.00;;;15.03
62932;BMP280;49037;41.898;25.004;2024-02-26T14:09:39;95958.84;;;15.17
62932;BMP280;49037;41.898;25.004;2024-02-26T14:12:44;95936.00;;;14.79
62932;BMP280;49037;41.898;25.004;2024-02-26T14:15:35;95938.41;;;14.84
62932;BMP280;49037;41.898;25.004;2024-02-26T14:18:04;95942.56;;;14.97
62932;BMP280;49037;41.898;25.004;2024-02-26T14:20:49;95944.16;;;14.99
62932;BMP280;49037;41.898;25.004;2024-02-26T14:23:33;95941.84;;;15.05
62932;BMP280;49037;41.898;25.004;2024-02-26T14:26:04;95952.31;;;15.01
62932;BMP280;49037;41.898;25.004;2024-02-26T14:28:34;95945.72;;;14.93
62932;BMP280;49037;41.898;25.004;2024-02-26T14:31:22;95944.84;;;15.00
62932;BMP280;49037;41.898;25.004;2024-02-26T14:33:55;95938.22;;;15.01
62932;BMP280;49037;41.898;25.004;2024-02-26T14:39:27;95949.50;;;15.09
62932;BMP280;49037;41.898;25.004;2024-02-26T14:42:02;95949.66;;;15.11
62932;BMP280;49037;41.898;25.004;2024-02-26T14:44:29;95938.88;;;15.01
62932;BMP280;49037;41.898;25.004;2024-02-26T14:47:19;95935.91;;;15.07
62932;BMP280;49037;41.898;25.004;2024-02-26T14:50:16;95934.50;;;14.97
62932;BMP280;49037;41.898;25.004;2024-02-26T14:53:29;95948.47;;;15.14
62932;BMP280;49037;41.898;25.004;2024-02-26T14:56:17;95945.56;;;15.00
62932;BMP280;49037;41.898;25.004;2024-02-26T14:58:52;95935.50;;;14.92
62932;BMP280;49037;41.898;25.004;2024-02-26T15:01:28;95952.31;;;15.01
62932;BMP280;49037;41.898;25.004;2024-02-26T15:04:18;95928.19;;;14.83
62932;BMP280;49037;41.898;25.004;2024-02-26T15:06:57;95929.75;;;14.86
62932;BMP280;49037;41.898;25.004;2024-02-26T15:09:25;95936.38;;;14.94
62932;BMP280;49037;41.898;25.004;2024-02-26T15:11:58;95942.63;;;14.87
62932;BMP280;49037;41.898;25.004;2024-02-26T15:14:24;95951.53;;;14.90
62932;BMP280;49037;41.898;25.004;2024-02-26T15:16:52;95946.75;;;14.79
62932;BMP280;49037;41.898;25.004;2024-02-26T15:19:20;95948.00;;;14.78
62932;BMP280;49037;41.898;25.004;2024-02-26T15:21:47;95960.59;;;14.75
62932;BMP280;49037;41.898;25.004;2024-02-26T15:24:45;95942.81;;;14.52
62932;BMP280;49037;41.898;25.004;2024-02-26T15:27:14;95959.34;;;14.39
62932;BMP280;49037;41.898;25.004;2024-02-26T15:30:08;95950.03;;;14.30
62932;BMP280;49037;41.898;25.004;2024-02-26T15:32:56;95970.66;;;14.47
62932;BMP280;49037;41.898;25.004;2024-02-26T15:35:22;95970.41;;;14.43
62932;BMP280;49037;41.898;25.004;2024-02-26T15:37:47;95971.78;;;14.44
62932;BMP280;49037;41.898;25.004;2024-02-26T15:40:27;95977.59;;;14.31
62932;BMP280;49037;41.898;25.004;2024-02-26T15:42:55;95970.78;;;14.30
62932;BMP280;49037;41.898;25.004;2024-02-26T15:45:25;95978.16;;;14.39
62932;BMP280;49037;41.898;25.004;2024-02-26T15:47:53;95974.34;;;14.32
62932;BMP280;49037;41.898;25.004;2024-02-26T15:50:19;95985.66;;;14.50
62932;BMP280;49037;41.898;25.004;2024-02-26T15:52:47;95983.97;;;14.35
62932;BMP280;49037;41.898;25.004;2024-02-26T15:55:18;95995.53;;;14.28
62932;BMP280;49037;41.898;25.004;2024-02-26T15:57:44;95982.94;;;14.12
62932;BMP280;49037;41.898;25.004;2024-02-26T16:00:10;95995.81;;;14.23
62932;BMP280;49037;41.898;25.004;2024-02-26T16:02:41;95997.06;;;14.13
62932;BMP280;49037;41.898;25.004;2024-02-26T16:05:08;95999.16;;;13.95
62932;BMP280;49037;41.898;25.004;2024-02-26T16:07:52;95999.16;;;13.86
62932;BMP280;49037;41.898;25.004;2024-02-26T16:10:22;96001.91;;;13.69
62932;BMP280;49037;41.898;25.004;2024-02-26T16:12:58;96015.63;;;13.73
62932;BMP280;49037;41.898;25.004;2024-02-26T16:15:31;96001.41;;;13.54
62932;BMP280;49037;41.898;25.004;2024-02-26T16:18:09;96006.75;;;13.44
62932;BMP280;49037;41.898;25.004;2024-02-26T16:20:35;96006.59;;;13.42
62932;BMP280;49037;41.898;25.004;2024-02-26T16:23:00;96009.34;;;13.26
62932;BMP280;49037;41.898;25.004;2024-02-26T16:25:31;96017.66;;;13.20
62932;BMP280;49037;41.898;25.004;2024-02-26T16:27:59;96028.50;;;13.22
62932;BMP280;49037;41.898;25.004;2024-02-26T16:33:57;96025.84;;;13.05
62932;BMP280;49037;41.898;25.004;2024-02-26T16:48:14;96029.75;;;12.95
62932;BMP280;49037;41.898;25.004;2024-02-26T17:40:24;96069.53;;;12.65
62932;BMP280;49037;41.898;25.004;2024-02-26T17:47:09;96068.09;;;12.64
62932;BMP280;49037;41.898;25.004;2024-02-26T17:53:03;96064.72;;;12.63
62932;BMP280;49037;41.898;25.004;2024-02-26T18:23:48;96091.22;;;12.35
62932;BMP280;49037;41.898;25.004;2024-02-26T19:19:36;96130.22;;;12.21
62932;BMP280;49037;41.898;25.004;2024-02-26T19:22:32;96142.63;;;12.34
62932;BMP280;49037;41.898;25.004;2024-02-26T19:25:13;96152.66;;;12.33
62932;BMP280;49037;41.898;25.004;2024-02-26T19:27:52;96144.50;;;12.24
62932;BMP280;49037;41.898;25.004;2024-02-26T19:30:59;96133.69;;;12.14
62932;BMP280;49037;41.898;25.004;2024-02-26T19:33:49;96140.66;;;12.10
62932;BMP280;49037;41.898;25.004;2024-02-26T19:36:44;96150.25;;;11.89